createdAt,value
2022-10-20T00:01:10.539Z,3.40
2022-10-20T00:03:39.226Z,4.53
2022-10-20T00:06:08.631Z,2.80
2022-10-20T00:08:36.803Z,10.27
2022-10-20T00:11:07.149Z,6.73
2022-10-20T00:13:35.250Z,4.00
2022-10-20T00:16:03.339Z,4.20
2022-10-20T00:18:31.537Z,7.83
2022-10-20T00:20:59.559Z,5.97
2022-10-20T00:23:27.933Z,6.17
2022-10-20T00:26:03.397Z,5.00
2022-10-20T00:28:32.993Z,6.73
2022-10-20T00:31:01.298Z,6.13
2022-10-20T00:33:29.354Z,3.63
2022-10-20T00:36:00.006Z,2.73
2022-10-20T00:38:28.291Z,6.07
2022-10-20T00:40:56.446Z,3.60
2022-10-20T00:43:24.604Z,8.00
2022-10-20T00:45:57.104Z,6.03
2022-10-20T00:48:36.326Z,6.47
2022-10-20T00:51:04.659Z,5.50
2022-10-20T00:53:32.964Z,4.60
2022-10-20T00:56:02.324Z,4.73
2022-10-20T00:58:30.491Z,8.13
2022-10-20T01:01:00.999Z,4.43
2022-10-20T01:03:32.980Z,4.10
2022-10-20T01:06:01.057Z,4.70
2022-10-20T01:08:29.202Z,6.00
2022-10-20T01:11:07.916Z,5.00
2022-10-20T01:13:45.028Z,5.40
2022-10-20T01:16:24.219Z,19.93
2022-10-20T01:19:01.860Z,4.30
2022-10-20T01:21:57.436Z,8.50
2022-10-20T01:24:56.575Z,4.77
2022-10-20T01:27:32.482Z,2.83
2022-10-20T01:30:09.388Z,3.20
2022-10-20T01:33:02.587Z,3.97
2022-10-20T01:35:44.881Z,3.73
2022-10-20T01:38:21.853Z,12.47
2022-10-20T01:40:53.804Z,3.97
2022-10-20T01:43:25.841Z,4.30
2022-10-20T01:45:55.643Z,3.33
2022-10-20T01:48:29.858Z,3.27
2022-10-20T01:50:58.080Z,6.63
2022-10-20T01:53:26.098Z,3.93
2022-10-20T01:55:57.464Z,5.63
2022-10-20T01:58:57.905Z,2.80
2022-10-20T02:01:36.909Z,5.03
2022-10-20T02:04:08.239Z,2.80
2022-10-20T02:06:46.180Z,3.77
2022-10-20T02:09:19.626Z,3.80
2022-10-20T02:11:55.964Z,5.27
2022-10-20T02:14:25.820Z,8.23
2022-10-20T02:16:57.914Z,5.20
2022-10-20T02:19:30.565Z,3.60
2022-10-20T02:21:59.122Z,3.93
2022-10-20T02:24:31.512Z,5.07
2022-10-20T02:27:04.015Z,3.37
2022-10-20T02:29:39.997Z,2.93
2022-10-20T02:32:10.338Z,2.80
2022-10-20T02:34:41.023Z,18.93
2022-10-20T02:37:10.932Z,14.10
2022-10-20T02:39:38.990Z,3.73
2022-10-20T02:42:07.229Z,4.83
2022-10-20T02:44:36.591Z,4.97
2022-10-20T02:47:04.660Z,6.60
2022-10-20T02:49:32.670Z,2.77
2022-10-20T02:52:00.687Z,5.23
2022-10-20T02:54:28.741Z,6.67
2022-10-20T02:56:56.867Z,4.87
2022-10-20T02:59:24.887Z,7.57
2022-10-20T03:01:54.271Z,6.20
2022-10-20T03:04:22.362Z,11.23
2022-10-20T03:06:50.376Z,2.47
2022-10-20T03:09:18.385Z,5.33
2022-10-20T03:11:46.372Z,12.20
2022-10-20T03:14:14.581Z,4.73
2022-10-20T03:16:42.581Z,3.07
2022-10-20T03:19:12.164Z,4.40
2022-10-20T03:21:40.191Z,3.20
2022-10-20T03:24:08.271Z,6.27
2022-10-20T03:26:36.372Z,5.13
2022-10-20T03:29:04.730Z,5.20
2022-10-20T03:31:32.773Z,3.63
2022-10-20T03:34:00.780Z,6.10
2022-10-20T03:36:30.119Z,5.73
2022-10-20T03:38:58.132Z,10.83
2022-10-20T03:41:26.260Z,7.87
2022-10-20T03:43:54.290Z,2.33
2022-10-20T03:46:22.352Z,3.67
2022-10-20T03:48:50.367Z,2.93
2022-10-20T03:51:18.439Z,2.90
2022-10-20T03:53:48.033Z,11.70
2022-10-20T03:56:19.435Z,6.23
2022-10-20T03:58:47.593Z,5.70
2022-10-20T04:01:18.032Z,2.47
2022-10-20T04:03:46.282Z,7.40
2022-10-20T04:06:14.576Z,8.23
2022-10-20T04:08:42.725Z,4.50
2022-10-20T04:11:12.208Z,5.40
2022-10-20T04:13:40.235Z,6.87
2022-10-20T04:16:09.059Z,7.30
2022-10-20T04:18:37.085Z,2.77
2022-10-20T04:21:05.422Z,7.43
2022-10-20T04:23:33.394Z,3.17
2022-10-20T04:26:01.428Z,11.33
2022-10-20T04:28:30.747Z,10.93
2022-10-20T04:31:01.138Z,9.57
2022-10-20T04:33:29.158Z,6.63
2022-10-20T04:36:00.696Z,3.50
2022-10-20T04:38:30.878Z,6.80
2022-10-20T04:41:03.366Z,4.90
2022-10-20T04:43:34.597Z,7.00
2022-10-20T04:46:06.977Z,4.33
2022-10-20T04:48:36.907Z,3.20
2022-10-20T04:51:07.152Z,2.80
2022-10-20T04:53:35.701Z,2.63
2022-10-20T04:56:05.028Z,3.10
2022-10-20T04:58:35.872Z,3.63
2022-10-20T05:01:05.259Z,4.13
2022-10-20T05:03:33.619Z,7.07
2022-10-20T05:06:12.583Z,7.20
2022-10-20T05:08:41.036Z,7.33
2022-10-20T05:11:10.093Z,5.60
2022-10-20T05:13:39.687Z,6.43
2022-10-20T05:16:08.680Z,5.03
2022-10-20T05:18:37.208Z,3.20
2022-10-20T05:21:10.105Z,6.10
2022-10-20T05:23:39.425Z,5.17
2022-10-20T05:26:09.229Z,4.63
2022-10-20T05:28:37.253Z,3.67
2022-10-20T05:31:09.128Z,3.57
2022-10-20T05:33:37.589Z,6.70
2022-10-20T05:36:10.110Z,4.40
2022-10-20T05:38:38.213Z,5.40
2022-10-20T05:41:11.133Z,5.40
2022-10-20T05:43:40.015Z,5.63
2022-10-20T05:46:10.044Z,3.00
2022-10-20T05:48:42.807Z,3.80
2022-10-20T05:51:14.799Z,3.40
2022-10-20T05:53:44.125Z,3.53
2022-10-20T05:56:13.894Z,4.40
2022-10-20T05:58:42.792Z,5.40
2022-10-20T06:01:17.172Z,3.03
2022-10-20T06:03:48.732Z,7.87
2022-10-20T06:06:17.166Z,5.70
2022-10-20T06:08:45.314Z,13.90
2022-10-20T06:11:15.071Z,10.00
2022-10-20T06:13:45.072Z,3.37
2022-10-20T06:16:18.296Z,9.93
2022-10-20T06:18:46.314Z,5.50
2022-10-20T06:21:17.640Z,4.53
2022-10-20T06:23:46.035Z,5.50
2022-10-20T06:26:17.397Z,10.90
2022-10-20T06:28:46.826Z,6.30
2022-10-20T06:31:17.735Z,16.53
2022-10-20T06:33:46.628Z,6.10
2022-10-20T06:36:15.831Z,4.10
2022-10-20T06:38:44.517Z,8.37
2022-10-20T06:41:14.379Z,4.30
2022-10-20T06:43:42.899Z,4.00
2022-10-20T06:46:14.157Z,9.03
2022-10-20T06:48:43.714Z,3.33
2022-10-20T06:51:13.338Z,4.07
2022-10-20T06:53:45.720Z,10.13
2022-10-20T06:56:16.460Z,4.60
2022-10-20T06:58:46.475Z,10.80
2022-10-20T07:01:16.239Z,7.10
2022-10-20T07:03:47.225Z,5.30
2022-10-20T07:06:19.988Z,7.80
2022-10-20T07:08:48.557Z,6.63
2022-10-20T07:11:18.729Z,6.77
2022-10-20T07:13:47.405Z,5.30
2022-10-20T07:16:17.154Z,7.00
2022-10-20T07:18:47.386Z,9.93
2022-10-20T07:21:17.536Z,5.70
2022-10-20T07:23:46.539Z,6.40
2022-10-20T07:26:16.629Z,8.63
2022-10-20T07:28:46.719Z,9.50
2022-10-20T07:31:17.278Z,9.53
2022-10-20T07:34:00.900Z,4.87
2022-10-20T07:36:36.399Z,8.27
2022-10-20T07:39:07.005Z,6.10
2022-10-20T07:41:37.781Z,6.70
2022-10-20T07:44:06.203Z,6.30
2022-10-20T07:46:34.234Z,8.43
2022-10-20T07:49:31.415Z,11.67
2022-10-20T07:51:51.955Z,7.53
2022-10-20T07:54:19.947Z,7.63
2022-10-20T07:56:47.986Z,5.73
2022-10-20T07:59:16.129Z,10.10
2022-10-20T08:01:44.579Z,7.03
2022-10-20T08:04:14.247Z,9.40
2022-10-20T08:06:42.393Z,8.53
2022-10-20T08:09:10.406Z,7.70
2022-10-20T08:11:38.432Z,7.87
2022-10-20T08:14:06.436Z,5.83
2022-10-20T08:16:36.750Z,8.03
2022-10-20T08:19:16.325Z,11.70
2022-10-20T08:21:45.683Z,12.30
2022-10-20T08:24:13.693Z,9.60
2022-10-20T08:26:41.687Z,7.43
2022-10-20T08:29:10.530Z,10.30
2022-10-20T08:31:38.594Z,10.40
2022-10-20T08:34:08.026Z,19.93
2022-10-20T08:36:37.302Z,11.13
2022-10-20T08:39:06.772Z,8.13
2022-10-20T08:42:02.506Z,10.50
2022-10-20T08:44:28.860Z,16.27
2022-10-20T08:46:57.292Z,8.53
2022-10-20T08:49:28.792Z,10.27
2022-10-20T08:51:58.640Z,10.50
2022-10-20T08:54:28.217Z,9.97
2022-10-20T08:56:56.333Z,8.13
2022-10-20T08:59:30.182Z,9.93
2022-10-20T09:01:59.009Z,11.83
2022-10-20T09:04:34.839Z,19.17
2022-10-20T09:07:06.399Z,11.13
2022-10-20T09:09:36.625Z,11.77
2022-10-20T09:12:07.260Z,15.80
2022-10-20T09:14:38.148Z,11.90
2022-10-20T09:17:11.345Z,12.60
2022-10-20T09:19:40.181Z,8.60
2022-10-20T09:22:08.521Z,12.77
2022-10-20T09:24:38.039Z,12.30
2022-10-20T09:27:24.534Z,16.27
2022-10-20T09:29:52.570Z,16.60
2022-10-20T09:32:48.778Z,10.03
2022-10-20T09:35:21.875Z,14.50
2022-10-20T09:37:56.316Z,11.10
2022-10-20T09:40:27.664Z,14.73
2022-10-20T09:42:58.104Z,11.03
2022-10-20T09:45:29.473Z,16.17
2022-10-20T09:48:02.865Z,10.80
2022-10-20T09:50:34.256Z,13.93
2022-10-20T09:53:05.770Z,12.53
2022-10-20T09:55:37.485Z,12.73
2022-10-20T09:58:06.755Z,11.63
2022-10-20T10:00:38.175Z,11.63
2022-10-20T10:03:14.625Z,14.47
2022-10-20T10:05:42.724Z,11.30
2022-10-20T10:08:15.671Z,12.67
2022-10-20T10:10:47.240Z,13.03
2022-10-20T10:13:25.728Z,12.43
2022-10-20T10:16:02.814Z,13.10
2022-10-20T10:18:31.263Z,13.60
2022-10-20T10:21:02.016Z,12.80
2022-10-20T10:23:33.269Z,13.57
2022-10-20T10:26:03.370Z,15.00
2022-10-20T10:28:34.961Z,10.20
2022-10-20T10:31:09.535Z,15.07
2022-10-20T10:33:37.595Z,14.80
2022-10-20T10:36:12.945Z,12.37
2022-10-20T10:38:41.028Z,12.87
2022-10-20T10:41:22.781Z,14.27
2022-10-20T10:44:01.184Z,15.13
2022-10-20T10:46:37.808Z,17.00
2022-10-20T10:49:24.990Z,19.43
2022-10-20T10:52:04.555Z,22.23
2022-10-20T10:54:45.992Z,19.57
2022-10-20T10:57:22.450Z,14.07
2022-10-20T10:59:53.104Z,16.10
2022-10-20T11:03:01.032Z,16.60
2022-10-20T11:05:41.676Z,16.47
2022-10-20T11:08:20.124Z,17.63
2022-10-20T11:10:55.782Z,14.60
2022-10-20T11:13:32.619Z,18.77
2022-10-20T11:16:09.468Z,19.20
2022-10-20T11:19:18.783Z,13.20
2022-10-20T11:21:56.711Z,14.83
2022-10-20T11:24:50.954Z,21.93
2022-10-20T11:27:23.338Z,15.47
2022-10-20T11:29:57.797Z,17.33
2022-10-20T11:32:32.287Z,12.87
2022-10-20T11:35:05.783Z,15.33
2022-10-20T11:37:40.040Z,21.83
2022-10-20T11:40:19.215Z,15.37
2022-10-20T11:42:55.565Z,12.77
2022-10-20T11:45:38.955Z,15.00
2022-10-20T11:48:18.138Z,18.27
2022-10-20T11:50:54.012Z,20.53
2022-10-20T11:53:40.698Z,17.67
2022-10-20T11:56:29.142Z,15.40
2022-10-20T11:59:18.344Z,13.80
2022-10-20T12:02:19.543Z,13.13
2022-10-20T12:05:16.366Z,19.93
2022-10-20T12:08:28.811Z,19.03
2022-10-20T12:11:04.742Z,14.20
2022-10-20T12:13:40.602Z,16.50
2022-10-20T12:16:08.935Z,16.30
2022-10-20T12:18:38.891Z,14.07
2022-10-20T12:21:09.033Z,15.30
2022-10-20T12:24:07.700Z,17.93
2022-10-20T12:26:55.531Z,20.70
2022-10-20T12:29:58.433Z,15.33
2022-10-20T12:32:55.890Z,17.70
2022-10-20T12:36:05.490Z,21.03
2022-10-20T12:38:34.888Z,16.40
2022-10-20T12:41:03.826Z,17.57
2022-10-20T12:43:51.753Z,15.77
2022-10-20T12:46:23.622Z,18.80
2022-10-20T12:48:57.411Z,18.40
2022-10-20T12:51:40.695Z,17.07
2022-10-20T12:54:22.306Z,18.27
2022-10-20T12:56:51.678Z,21.83
2022-10-20T12:59:40.088Z,19.83
2022-10-20T13:02:50.128Z,15.13
2022-10-20T13:05:48.775Z,22.70
2022-10-20T13:08:32.874Z,15.43
2022-10-20T13:11:44.476Z,13.50
2022-10-20T13:14:41.141Z,16.17
2022-10-20T13:17:19.446Z,13.70
2022-10-20T13:19:51.497Z,15.93
2022-10-20T13:22:37.751Z,21.23
2022-10-20T13:25:12.706Z,19.83
2022-10-20T13:27:42.246Z,24.13
2022-10-20T13:30:11.604Z,17.90
2022-10-20T13:33:10.838Z,14.87
2022-10-20T13:35:43.717Z,15.50
2022-10-20T13:38:20.630Z,15.47
2022-10-20T13:40:58.367Z,14.50
2022-10-20T13:43:33.335Z,16.47
2022-10-20T13:46:20.045Z,15.53
2022-10-20T13:49:05.438Z,16.17
2022-10-20T13:51:44.700Z,20.53
2022-10-20T13:54:23.130Z,16.67
2022-10-20T13:56:52.021Z,20.53
2022-10-20T14:01:59.178Z,14.10
2022-10-20T14:04:29.306Z,17.27
2022-10-20T14:07:03.027Z,16.63
2022-10-20T14:09:31.411Z,19.27
2022-10-20T14:12:03.317Z,14.23
2022-10-20T14:14:33.114Z,18.43
2022-10-20T14:17:04.003Z,16.87
2022-10-20T14:19:33.525Z,17.43
2022-10-20T14:22:16.843Z,17.37
2022-10-20T14:24:47.139Z,16.80
2022-10-20T14:27:19.767Z,16.13
2022-10-20T14:29:49.997Z,17.43
2022-10-20T14:32:21.907Z,16.80
2022-10-20T14:34:58.542Z,15.43
2022-10-20T14:37:34.495Z,16.50
2022-10-20T14:40:05.072Z,19.70
2022-10-20T14:42:34.394Z,20.83
2022-10-20T14:45:04.906Z,19.47
2022-10-20T14:47:39.537Z,23.27
2022-10-20T14:50:08.762Z,15.90
2022-10-20T14:52:38.796Z,20.73
2022-10-20T14:55:35.123Z,15.67
2022-10-20T14:58:04.174Z,15.20
2022-10-20T15:00:36.355Z,17.73
2022-10-20T15:03:07.782Z,16.50
2022-10-20T15:05:41.088Z,19.60
2022-10-20T15:08:16.617Z,21.20
2022-10-20T15:10:45.474Z,17.03
2022-10-20T15:13:27.984Z,16.27
2022-10-20T15:15:59.522Z,19.00
2022-10-20T15:18:28.874Z,17.90
2022-10-20T15:20:57.602Z,19.50
2022-10-20T15:23:27.109Z,23.77
2022-10-20T15:25:59.010Z,23.00
2022-10-20T15:28:38.310Z,21.57
2022-10-20T15:31:17.090Z,16.80
2022-10-20T15:33:45.128Z,30.87
2022-10-20T15:36:15.568Z,27.67
2022-10-20T15:38:43.761Z,18.17
2022-10-20T15:41:14.905Z,20.30
2022-10-20T15:43:43.020Z,17.13
2022-10-20T15:46:13.546Z,21.23
2022-10-20T15:48:41.700Z,17.57
2022-10-20T15:51:15.126Z,26.47
2022-10-20T15:53:44.226Z,19.90
2022-10-20T15:56:12.311Z,21.43
2022-10-20T15:58:40.390Z,19.60
2022-10-20T16:01:08.504Z,22.70
2022-10-20T16:03:40.688Z,17.10
2022-10-20T16:06:08.893Z,16.63
2022-10-20T16:08:36.976Z,16.03
2022-10-20T16:11:05.248Z,19.73
2022-10-20T16:13:33.771Z,20.97
2022-10-20T16:16:01.864Z,18.30
2022-10-20T16:18:29.901Z,17.60
2022-10-20T16:21:00.402Z,18.63
2022-10-20T16:23:29.218Z,18.20
2022-10-20T16:25:57.248Z,16.00
2022-10-20T16:28:25.258Z,20.07
2022-10-20T16:31:02.881Z,19.37
2022-10-20T16:33:30.894Z,18.10
2022-10-20T16:36:03.106Z,27.00
2022-10-20T16:38:37.277Z,18.73
2022-10-20T16:41:10.261Z,25.03
2022-10-20T16:43:39.094Z,19.03
2022-10-20T16:46:07.504Z,32.20
2022-10-20T16:48:37.794Z,18.80
2022-10-20T16:51:08.676Z,17.30
2022-10-20T16:53:37.183Z,18.77
2022-10-20T16:56:05.697Z,17.67
2022-10-20T16:58:33.731Z,17.00
2022-10-20T17:01:03.973Z,16.40
2022-10-20T17:03:32.315Z,14.40
2022-10-20T17:06:02.378Z,15.83
2022-10-20T17:08:32.376Z,19.10
2022-10-20T17:11:02.327Z,14.43
2022-10-20T17:13:30.640Z,19.37
2022-10-20T17:16:03.880Z,20.47
2022-10-20T17:18:32.787Z,23.03
2022-10-20T17:21:01.052Z,24.50
2022-10-20T17:23:31.925Z,22.00
2022-10-20T17:26:03.128Z,23.70
2022-10-20T17:28:32.811Z,22.53
2022-10-20T17:31:01.690Z,23.17
2022-10-20T17:33:31.399Z,24.97
2022-10-20T17:36:00.707Z,22.90
2022-10-20T17:38:30.225Z,26.10
2022-10-20T17:41:05.793Z,16.40
2022-10-20T17:43:34.020Z,18.83
2022-10-20T17:46:03.930Z,19.17
2022-10-20T17:48:32.295Z,54.10
2022-10-20T17:51:01.784Z,24.30
2022-10-20T17:53:31.859Z,15.17
2022-10-20T17:56:02.363Z,56.00
2022-10-20T17:58:33.598Z,17.77
2022-10-20T18:01:12.290Z,19.63
2022-10-20T18:03:40.824Z,18.47
2022-10-20T18:06:14.327Z,21.47
2022-10-20T18:08:42.805Z,20.27
2022-10-20T18:11:12.099Z,23.47
2022-10-20T18:13:41.686Z,20.20
2022-10-20T18:16:11.921Z,23.50
2022-10-20T18:18:40.253Z,20.83
2022-10-20T18:21:11.226Z,18.73
2022-10-20T18:23:41.275Z,18.70
2022-10-20T18:26:11.450Z,21.17
2022-10-20T18:28:43.158Z,18.87
2022-10-20T18:31:17.838Z,18.60
2022-10-20T18:33:46.806Z,22.77
2022-10-20T18:36:16.559Z,20.90
2022-10-20T18:38:45.888Z,22.50
2022-10-20T18:41:16.029Z,25.57
2022-10-20T18:43:46.396Z,26.77
2022-10-20T18:46:15.764Z,21.67
2022-10-20T18:48:44.098Z,16.57
2022-10-20T18:51:14.241Z,18.43
2022-10-20T18:53:43.791Z,20.40
2022-10-20T18:56:14.916Z,24.63
2022-10-20T18:58:50.048Z,17.80
2022-10-20T19:01:19.708Z,27.73
2022-10-20T19:03:49.810Z,36.23
2022-10-20T19:06:21.869Z,34.80
2022-10-20T19:08:54.149Z,26.13
2022-10-20T19:11:23.853Z,33.07
2022-10-20T19:13:53.721Z,94.57
2022-10-20T19:16:24.265Z,19.30
2022-10-20T19:18:54.249Z,22.53
2022-10-20T19:21:24.342Z,23.70
2022-10-20T19:23:54.326Z,37.00
2022-10-20T19:26:24.568Z,25.00
2022-10-20T19:28:58.804Z,18.80
2022-10-20T19:31:30.758Z,27.97
2022-10-20T19:34:01.446Z,25.13
2022-10-20T19:36:30.409Z,17.40
2022-10-20T19:38:58.696Z,27.53
2022-10-20T19:41:27.333Z,20.70
2022-10-20T19:43:56.726Z,21.60
2022-10-20T19:46:24.972Z,41.63
2022-10-20T19:48:53.419Z,20.80
2022-10-20T19:51:21.574Z,16.80
2022-10-20T19:53:49.798Z,25.07
2022-10-20T19:56:18.073Z,18.33
2022-10-20T19:58:48.293Z,21.40
2022-10-20T20:01:18.411Z,19.00
2022-10-20T20:03:46.735Z,21.40
2022-10-20T20:06:17.652Z,18.87
2022-10-20T20:08:46.735Z,26.40
2022-10-20T20:11:23.595Z,24.20
2022-10-20T20:13:51.848Z,22.47
2022-10-20T20:16:22.139Z,24.33
2022-10-20T20:18:50.276Z,17.57
2022-10-20T20:21:19.149Z,16.60
2022-10-20T20:23:58.987Z,22.07
2022-10-20T20:26:28.525Z,21.00
2022-10-20T20:28:56.822Z,18.83
2022-10-20T20:31:27.759Z,23.87
2022-10-20T20:33:57.493Z,20.40
2022-10-20T20:36:27.538Z,18.77
2022-10-20T20:38:57.389Z,21.13
2022-10-20T20:41:26.685Z,18.03
2022-10-20T20:43:55.036Z,14.30
2022-10-20T20:46:24.752Z,14.70
2022-10-20T20:48:54.292Z,14.83
2022-10-20T20:51:22.524Z,14.77
2022-10-20T20:53:50.538Z,12.00
2022-10-20T20:56:21.871Z,14.77
2022-10-20T20:59:07.792Z,26.17
2022-10-20T21:01:35.813Z,17.30
2022-10-20T21:04:09.976Z,15.10
2022-10-20T21:07:00.614Z,16.07
2022-10-20T21:09:27.514Z,19.23
2022-10-20T21:11:55.553Z,20.13
2022-10-20T21:14:23.603Z,19.33
2022-10-20T21:16:51.632Z,16.03
2022-10-20T21:19:21.875Z,22.77
2022-10-20T21:21:52.192Z,14.07
2022-10-20T21:24:20.222Z,14.17
2022-10-20T21:26:48.756Z,16.20
2022-10-20T21:29:16.943Z,18.50
2022-10-20T21:31:45.097Z,17.07
2022-10-20T21:34:13.225Z,15.70
2022-10-20T21:36:42.599Z,20.17
2022-10-20T21:39:15.717Z,17.10
2022-10-20T21:41:44.753Z,23.07
2022-10-20T21:44:14.352Z,17.27
2022-10-20T21:46:44.941Z,13.90
2022-10-20T21:49:15.727Z,18.33
2022-10-20T21:51:47.575Z,17.87
2022-10-20T21:54:19.111Z,14.27
2022-10-20T21:56:47.995Z,17.83
2022-10-20T21:59:18.852Z,16.00
2022-10-20T22:01:46.993Z,13.77
2022-10-20T22:04:15.198Z,15.90
2022-10-20T22:06:44.779Z,16.40
2022-10-20T22:09:13.799Z,17.60
2022-10-20T22:11:44.414Z,17.80
2022-10-20T22:14:13.538Z,15.10
2022-10-20T22:16:43.327Z,18.30
2022-10-20T22:19:14.879Z,15.73
2022-10-20T22:21:45.850Z,18.67
2022-10-20T22:24:14.726Z,18.10
2022-10-20T22:26:43.221Z,17.00
2022-10-20T22:29:11.973Z,17.10
2022-10-20T22:31:41.238Z,16.43
2022-10-20T22:34:10.342Z,15.43
2022-10-20T22:36:39.305Z,17.40
2022-10-20T22:39:09.467Z,21.37
2022-10-20T22:41:37.753Z,13.47
2022-10-20T22:44:06.439Z,14.50
2022-10-20T22:46:34.600Z,17.20
2022-10-20T22:49:02.657Z,19.47
2022-10-20T22:51:30.753Z,17.80
2022-10-20T22:53:59.018Z,16.00
2022-10-20T22:56:28.384Z,15.60
2022-10-20T22:58:56.514Z,16.80
2022-10-20T23:01:25.171Z,18.73
2022-10-20T23:03:53.470Z,18.50
2022-10-20T23:06:24.062Z,17.50
2022-10-20T23:08:54.842Z,15.87
2022-10-20T23:11:23.060Z,15.40
2022-10-20T23:13:52.751Z,31.77
2022-10-20T23:16:21.504Z,44.77
2022-10-20T23:18:49.579Z,33.07
2022-10-20T23:21:18.207Z,19.87
2022-10-20T23:23:47.297Z,29.17
2022-10-20T23:26:15.965Z,32.47
2022-10-20T23:28:44.022Z,27.00
2022-10-20T23:31:15.083Z,24.77
2022-10-20T23:33:44.781Z,22.27
2022-10-20T23:36:14.206Z,18.77
2022-10-20T23:38:42.881Z,24.83
2022-10-20T23:41:11.497Z,19.53
2022-10-20T23:43:39.745Z,19.17
2022-10-20T23:46:08.692Z,23.40
2022-10-20T23:48:38.066Z,17.40
2022-10-20T23:51:07.428Z,25.20
2022-10-20T23:53:35.787Z,16.83
2022-10-20T23:56:03.926Z,18.27
2022-10-20T23:58:31.861Z,13.00
